createdAt,value
2022-08-21T00:01:57.002Z,67.59
2022-08-21T00:04:29.543Z,67.63
2022-08-21T00:06:58.288Z,67.69
2022-08-21T00:09:26.276Z,67.86
2022-08-21T00:11:54.162Z,68.27
2022-08-21T00:14:22.242Z,68.27
2022-08-21T00:16:50.576Z,68.52
2022-08-21T00:19:19.941Z,68.56
2022-08-21T00:21:52.420Z,68.86
2022-08-21T00:24:20.662Z,68.72
2022-08-21T00:26:48.952Z,68.39
2022-08-21T00:29:17.507Z,68.71
2022-08-21T00:31:46.279Z,68.89
2022-08-21T00:34:15.533Z,69.19
2022-08-21T00:36:44.781Z,69.59
2022-08-21T00:39:13.183Z,69.82
2022-08-21T00:41:42.458Z,69.78
2022-08-21T00:44:15.171Z,69.77
2022-08-21T00:46:45.150Z,70.04
2022-08-21T00:49:14.446Z,69.93
2022-08-21T00:51:49.421Z,70.23
2022-08-21T00:54:19.341Z,70.37
2022-08-21T00:56:50.118Z,70.47
2022-08-21T00:59:19.868Z,70.64
2022-08-21T01:01:48.182Z,70.64
2022-08-21T01:04:17.332Z,70.96
2022-08-21T01:06:47.204Z,70.95
2022-08-21T01:09:16.002Z,71.10
2022-08-21T01:11:44.858Z,71.32
2022-08-21T01:14:13.855Z,71.61
2022-08-21T01:16:45.089Z,71.64
2022-08-21T01:19:13.954Z,71.82
2022-08-21T01:21:43.896Z,71.85
2022-08-21T01:24:13.354Z,71.83
2022-08-21T01:26:42.196Z,71.89
2022-08-21T01:29:17.540Z,71.99
2022-08-21T01:31:45.426Z,72.36
2022-08-21T01:34:13.808Z,72.33
2022-08-21T01:36:43.002Z,72.27
2022-08-21T01:39:11.085Z,72.62
2022-08-21T01:41:38.843Z,72.51
2022-08-21T01:44:06.702Z,72.63
2022-08-21T01:46:34.704Z,72.85
2022-08-21T01:49:02.528Z,73.06
2022-08-21T01:51:30.389Z,72.95
2022-08-21T01:53:59.503Z,73.04
2022-08-21T01:56:28.785Z,73.01
2022-08-21T01:58:56.703Z,72.98
2022-08-21T02:01:25.490Z,73.06
2022-08-21T02:03:53.372Z,73.61
2022-08-21T02:06:21.196Z,73.66
2022-08-21T02:08:51.546Z,73.82
2022-08-21T02:11:21.680Z,73.88
2022-08-21T02:13:49.405Z,74.05
2022-08-21T02:16:19.475Z,74.08
2022-08-21T02:18:47.970Z,73.98
2022-08-21T02:21:15.796Z,73.86
2022-08-21T02:23:43.529Z,74.08
2022-08-21T02:26:11.916Z,73.99
2022-08-21T02:28:41.371Z,74.13
2022-08-21T02:31:09.344Z,74.17
2022-08-21T02:33:37.187Z,74.11
2022-08-21T02:36:05.919Z,74.00
2022-08-21T02:38:38.843Z,74.22
2022-08-21T02:41:08.574Z,74.15
2022-08-21T02:43:37.047Z,74.23
2022-08-21T02:46:08.031Z,73.96
2022-08-21T02:48:36.556Z,74.26
2022-08-21T02:51:06.821Z,74.28
2022-08-21T02:53:35.236Z,74.17
2022-08-21T02:56:06.111Z,74.38
2022-08-21T02:58:36.365Z,74.50
2022-08-21T03:01:05.004Z,74.51
2022-08-21T03:03:36.188Z,74.57
2022-08-21T03:06:05.172Z,74.93
2022-08-21T03:08:32.950Z,74.81
2022-08-21T03:11:01.785Z,74.87
2022-08-21T03:13:29.911Z,74.85
2022-08-21T03:15:58.055Z,75.03
2022-08-21T03:18:26.198Z,75.06
2022-08-21T03:20:55.514Z,75.09
2022-08-21T03:23:23.707Z,75.01
2022-08-21T03:25:52.059Z,75.05
2022-08-21T03:28:24.066Z,75.21
2022-08-21T03:30:53.927Z,75.39
2022-08-21T03:33:23.334Z,75.46
2022-08-21T03:36:01.564Z,75.33
2022-08-21T03:38:31.399Z,75.60
2022-08-21T03:40:59.562Z,75.34
2022-08-21T03:43:27.568Z,75.53
2022-08-21T03:46:00.795Z,75.45
2022-08-21T03:48:28.606Z,75.62
2022-08-21T03:50:56.698Z,75.88
2022-08-21T03:53:26.116Z,75.89
2022-08-21T03:55:54.539Z,75.77
2022-08-21T03:58:25.588Z,75.87
2022-08-21T04:00:57.631Z,76.03
2022-08-21T04:03:26.412Z,76.35
2022-08-21T04:05:54.249Z,76.30
2022-08-21T04:08:22.096Z,76.52
2022-08-21T04:10:54.403Z,76.38
2022-08-21T04:13:22.885Z,76.53
2022-08-21T04:15:51.206Z,76.55
2022-08-21T04:18:19.224Z,76.76
2022-08-21T04:20:50.710Z,76.75
2022-08-21T04:23:24.219Z,76.74
2022-08-21T04:25:56.545Z,76.40
2022-08-21T04:28:29.241Z,76.53
2022-08-21T04:30:58.726Z,76.42
2022-08-21T04:33:26.652Z,76.23
2022-08-21T04:35:54.355Z,76.13
2022-08-21T04:38:22.742Z,76.35
2022-08-21T04:40:51.971Z,76.46
2022-08-21T04:43:22.425Z,76.51
2022-08-21T04:45:52.018Z,76.43
2022-08-21T04:48:21.654Z,76.59
2022-08-21T04:50:54.222Z,76.75
2022-08-21T04:53:26.364Z,76.80
2022-08-21T04:55:56.783Z,76.83
2022-08-21T04:58:28.684Z,76.81
2022-08-21T05:00:58.632Z,76.78
2022-08-21T05:03:26.730Z,76.89
2022-08-21T05:05:54.571Z,77.07
2022-08-21T05:08:26.403Z,76.70
2022-08-21T05:10:59.605Z,76.66
2022-08-21T05:13:29.821Z,76.78
2022-08-21T05:15:57.772Z,76.62
2022-08-21T05:18:25.582Z,76.57
2022-08-21T05:20:53.569Z,76.70
2022-08-21T05:23:21.519Z,76.62
2022-08-21T05:25:49.329Z,76.53
2022-08-21T05:28:17.100Z,76.43
2022-08-21T05:30:46.564Z,76.57
2022-08-21T05:33:14.322Z,76.53
2022-08-21T05:35:42.187Z,76.56
2022-08-21T05:38:16.594Z,76.66
2022-08-21T05:40:45.585Z,76.51
2022-08-21T05:43:13.436Z,76.47
2022-08-21T05:45:42.595Z,76.36
2022-08-21T05:48:17.250Z,75.72
2022-08-21T05:50:47.094Z,73.87
2022-08-21T05:53:16.333Z,73.03
2022-08-21T05:55:46.538Z,72.54
2022-08-21T05:58:16.468Z,72.00
2022-08-21T06:00:45.140Z,71.73
2022-08-21T06:03:16.243Z,71.33
2022-08-21T06:05:44.103Z,70.61
2022-08-21T06:08:11.931Z,70.18
2022-08-21T06:10:39.840Z,69.79
2022-08-21T06:13:07.598Z,69.62
2022-08-21T06:15:35.347Z,69.36
2022-08-21T06:18:03.182Z,69.36
2022-08-21T06:20:32.472Z,69.31
2022-08-21T06:23:00.751Z,68.82
2022-08-21T06:25:28.827Z,68.94
2022-08-21T06:28:03.095Z,68.59
2022-08-21T06:30:30.937Z,68.16
2022-08-21T06:32:58.897Z,67.61
2022-08-21T06:35:27.029Z,67.39
2022-08-21T06:37:56.210Z,67.14
2022-08-21T06:40:24.336Z,66.83
2022-08-21T06:42:52.912Z,67.06
2022-08-21T06:45:21.510Z,66.91
2022-08-21T06:47:49.258Z,66.50
2022-08-21T06:50:17.053Z,65.78
2022-08-21T06:52:44.767Z,65.70
2022-08-21T06:55:21.705Z,65.52
2022-08-21T06:57:52.551Z,65.40
2022-08-21T07:00:21.511Z,64.88
2022-08-21T07:02:49.659Z,64.74
2022-08-21T07:05:18.423Z,64.26
2022-08-21T07:07:47.171Z,63.92
2022-08-21T07:10:22.618Z,63.61
2022-08-21T07:12:52.580Z,63.64
2022-08-21T07:15:29.458Z,63.73
2022-08-21T07:17:59.145Z,63.83
2022-08-21T07:20:27.408Z,63.34
2022-08-21T07:22:55.889Z,63.43
2022-08-21T07:25:25.142Z,63.24
2022-08-21T07:27:52.967Z,62.84
2022-08-21T07:30:21.346Z,61.55
2022-08-21T07:32:50.286Z,61.32
2022-08-21T07:35:18.434Z,61.31
2022-08-21T07:37:46.323Z,61.28
2022-08-21T07:40:14.424Z,60.86
2022-08-21T07:42:44.542Z,60.81
2022-08-21T07:45:14.155Z,60.92
2022-08-21T07:47:43.063Z,61.09
2022-08-21T07:50:14.290Z,61.03
2022-08-21T07:52:42.823Z,60.54
2022-08-21T07:55:13.224Z,60.08
2022-08-21T07:57:41.574Z,60.13
2022-08-21T08:00:14.722Z,59.45
2022-08-21T08:02:45.980Z,58.57
2022-08-21T08:05:14.292Z,59.00
2022-08-21T08:07:42.136Z,58.41
2022-08-21T08:10:11.531Z,58.32
2022-08-21T08:12:41.492Z,57.95
2022-08-21T08:15:13.660Z,57.59
2022-08-21T08:17:41.575Z,57.80
2022-08-21T08:20:11.788Z,57.58
2022-08-21T08:22:42.208Z,57.14
2022-08-21T08:25:11.878Z,56.75
2022-08-21T08:27:39.934Z,57.13
2022-08-21T08:30:11.605Z,56.76
2022-08-21T08:32:40.623Z,56.82
2022-08-21T08:35:09.680Z,56.74
2022-08-21T08:37:39.687Z,56.26
2022-08-21T08:40:12.201Z,56.44
2022-08-21T08:42:40.444Z,56.17
2022-08-21T08:45:13.607Z,56.32
2022-08-21T08:47:44.199Z,56.29
2022-08-21T08:50:18.975Z,55.89
2022-08-21T08:52:51.736Z,55.61
2022-08-21T08:55:27.029Z,55.06
2022-08-21T08:57:56.561Z,54.37
2022-08-21T09:00:26.046Z,55.49
2022-08-21T09:02:56.948Z,55.35
2022-08-21T09:05:28.235Z,54.75
2022-08-21T09:08:18.925Z,54.98
2022-08-21T09:10:57.183Z,55.22
2022-08-21T09:13:38.512Z,54.62
2022-08-21T09:16:23.035Z,54.10
2022-08-21T09:19:02.904Z,54.85
2022-08-21T09:21:44.507Z,54.02
2022-08-21T09:24:27.850Z,53.59
2022-08-21T09:27:03.650Z,53.84
2022-08-21T09:29:35.267Z,53.88
2022-08-21T09:32:06.075Z,53.75
2022-08-21T09:34:33.817Z,53.49
2022-08-21T09:37:01.583Z,52.84
2022-08-21T09:39:32.591Z,52.03
2022-08-21T09:42:10.774Z,52.58
2022-08-21T09:44:44.014Z,52.55
2022-08-21T09:47:13.809Z,52.53
2022-08-21T09:49:43.889Z,52.50
2022-08-21T09:52:19.650Z,52.09
2022-08-21T09:54:48.799Z,52.16
2022-08-21T09:57:38.855Z,52.06
2022-08-21T10:00:26.294Z,51.74
2022-08-21T10:02:55.595Z,51.22
2022-08-21T10:05:27.094Z,51.38
2022-08-21T10:07:54.965Z,51.21
2022-08-21T10:10:25.834Z,50.70
2022-08-21T10:13:04.918Z,50.68
2022-08-21T10:15:42.770Z,50.13
2022-08-21T10:18:21.524Z,49.95
2022-08-21T10:20:56.944Z,48.87
2022-08-21T10:23:38.525Z,48.60
2022-08-21T10:26:18.873Z,48.58
2022-08-21T10:28:55.438Z,49.32
2022-08-21T10:31:34.416Z,48.86
2022-08-21T10:34:17.895Z,49.14
2022-08-21T10:36:50.294Z,48.58
2022-08-21T10:39:35.902Z,47.61
2022-08-21T10:42:34.248Z,48.23
2022-08-21T10:45:13.396Z,48.52
2022-08-21T10:47:47.194Z,48.25
2022-08-21T10:50:27.252Z,47.64
2022-08-21T10:53:17.773Z,47.61
2022-08-21T10:55:52.555Z,47.99
2022-08-21T10:58:27.553Z,47.91
2022-08-21T11:01:03.872Z,46.92
2022-08-21T11:03:37.837Z,46.69
2022-08-21T11:06:13.263Z,46.76
2022-08-21T11:08:44.525Z,46.23
2022-08-21T11:11:22.705Z,45.83
2022-08-21T11:13:56.056Z,44.47
2022-08-21T11:16:34.679Z,45.22
2022-08-21T11:19:09.929Z,45.39
2022-08-21T11:21:45.274Z,44.84
2022-08-21T11:24:27.015Z,45.18
2022-08-21T11:27:03.919Z,44.24
2022-08-21T11:29:35.898Z,44.50
2022-08-21T11:32:24.081Z,44.43
2022-08-21T11:35:02.126Z,43.99
2022-08-21T11:37:45.554Z,43.04
2022-08-21T11:40:26.341Z,43.32
2022-08-21T11:43:09.808Z,43.43
2022-08-21T11:45:45.615Z,43.21
2022-08-21T11:48:23.430Z,42.56
2022-08-21T11:50:53.871Z,43.31
2022-08-21T11:53:31.434Z,43.09
2022-08-21T11:56:03.977Z,43.40
2022-08-21T11:58:37.371Z,42.66
2022-08-21T12:01:09.152Z,43.00
2022-08-21T12:03:42.237Z,43.09
2022-08-21T12:06:12.947Z,42.69
2022-08-21T12:08:45.447Z,42.54
2022-08-21T12:11:31.012Z,42.24
2022-08-21T12:14:13.143Z,42.76
2022-08-21T12:16:43.046Z,42.50
2022-08-21T12:19:14.256Z,42.86
2022-08-21T12:21:52.536Z,42.99
2022-08-21T12:24:36.285Z,41.88
2022-08-21T12:27:22.360Z,42.55
2022-08-21T12:29:52.669Z,42.66
2022-08-21T12:32:28.151Z,43.24
2022-08-21T12:35:03.209Z,43.06
2022-08-21T12:37:40.499Z,43.08
2022-08-21T12:40:22.404Z,42.61
2022-08-21T12:43:00.935Z,43.00
2022-08-21T12:45:33.338Z,42.99
2022-08-21T12:48:08.282Z,43.21
2022-08-21T12:50:42.326Z,42.83
2022-08-21T12:53:25.098Z,42.67
2022-08-21T12:55:56.124Z,42.84
2022-08-21T12:58:25.965Z,42.49
2022-08-21T13:00:57.978Z,42.65
2022-08-21T13:03:25.540Z,41.67
2022-08-21T13:05:55.261Z,42.13
2022-08-21T13:08:25.427Z,41.60
2022-08-21T13:11:13.361Z,41.70
2022-08-21T13:13:50.058Z,41.28
2022-08-21T13:16:24.558Z,41.46
2022-08-21T13:18:59.640Z,41.99
2022-08-21T13:21:31.758Z,41.84
2022-08-21T13:24:41.948Z,41.46
2022-08-21T13:27:22.058Z,41.94
2022-08-21T13:29:53.373Z,42.50
2022-08-21T13:32:26.039Z,41.16
2022-08-21T13:34:54.459Z,41.96
2022-08-21T13:37:25.289Z,42.11
2022-08-21T13:39:54.746Z,42.09
2022-08-21T13:42:25.576Z,41.71
2022-08-21T13:44:55.590Z,41.76
2022-08-21T13:47:23.473Z,41.72
2022-08-21T13:49:58.600Z,40.48
2022-08-21T13:52:28.579Z,39.48
2022-08-21T13:54:58.761Z,38.82
2022-08-21T13:57:31.080Z,38.63
2022-08-21T14:00:18.203Z,38.90
2022-08-21T14:02:52.021Z,39.99
2022-08-21T14:05:24.041Z,40.32
2022-08-21T14:07:52.724Z,39.98
2022-08-21T14:10:24.234Z,40.60
2022-08-21T14:13:00.530Z,40.04
2022-08-21T14:15:31.133Z,40.21
2022-08-21T14:18:11.639Z,40.09
2022-08-21T14:20:39.479Z,40.72
2022-08-21T14:23:07.432Z,40.07
2022-08-21T14:25:43.729Z,40.49
2022-08-21T14:28:21.874Z,40.79
2022-08-21T14:30:57.030Z,40.87
2022-08-21T14:33:29.324Z,40.18
2022-08-21T14:35:57.747Z,40.11
2022-08-21T14:38:28.740Z,40.29
2022-08-21T14:40:59.801Z,40.15
2022-08-21T14:43:30.224Z,40.67
2022-08-21T14:45:58.234Z,38.91
2022-08-21T14:48:26.039Z,39.38
2022-08-21T14:50:58.406Z,40.00
2022-08-21T14:53:28.106Z,40.22
2022-08-21T14:56:07.993Z,39.73
2022-08-21T14:58:39.625Z,38.68
2022-08-21T15:01:09.587Z,38.96
2022-08-21T15:03:38.166Z,39.16
2022-08-21T15:06:07.746Z,39.52
2022-08-21T15:08:36.055Z,39.93
2022-08-21T15:11:16.243Z,40.05
2022-08-21T15:13:48.582Z,38.93
2022-08-21T15:16:16.426Z,39.82
2022-08-21T15:18:44.256Z,39.60
2022-08-21T15:21:12.354Z,39.28
2022-08-21T15:23:43.959Z,38.94
2022-08-21T15:26:12.496Z,39.75
2022-08-21T15:28:40.605Z,38.63
2022-08-21T15:31:09.821Z,38.58
2022-08-21T15:33:37.769Z,38.81
2022-08-21T15:36:05.686Z,38.03
2022-08-21T15:38:33.490Z,38.42
2022-08-21T15:41:01.358Z,38.46
2022-08-21T15:43:31.324Z,38.34
2022-08-21T15:46:00.950Z,38.38
2022-08-21T15:48:30.588Z,37.17
2022-08-21T15:50:58.506Z,37.25
2022-08-21T15:53:26.432Z,37.38
2022-08-21T15:55:55.911Z,37.62
2022-08-21T15:58:24.648Z,37.30
2022-08-21T16:00:52.598Z,37.00
2022-08-21T16:03:22.962Z,36.43
2022-08-21T16:05:53.796Z,36.90
2022-08-21T16:08:22.738Z,36.72
2022-08-21T16:10:51.575Z,36.74
2022-08-21T16:13:23.992Z,37.20
2022-08-21T16:15:52.338Z,36.61
2022-08-21T16:18:24.042Z,36.74
2022-08-21T16:20:53.765Z,36.32
2022-08-21T16:23:21.626Z,35.96
2022-08-21T16:25:50.035Z,35.92
2022-08-21T16:28:20.929Z,35.90
2022-08-21T16:30:52.113Z,35.71
2022-08-21T16:33:26.885Z,35.76
2022-08-21T16:35:56.247Z,34.84
2022-08-21T16:38:25.159Z,34.46
2022-08-21T16:40:53.444Z,34.81
2022-08-21T16:43:23.154Z,35.21
2022-08-21T16:45:51.180Z,36.29
2022-08-21T16:48:19.338Z,36.73
2022-08-21T16:50:50.909Z,36.99
2022-08-21T16:53:20.621Z,37.22
2022-08-21T16:55:48.854Z,37.04
2022-08-21T16:58:22.329Z,36.75
2022-08-21T17:00:50.742Z,37.04
2022-08-21T17:03:21.668Z,37.40
2022-08-21T17:05:49.824Z,37.35
2022-08-21T17:08:18.021Z,37.15
2022-08-21T17:10:50.460Z,37.35
2022-08-21T17:13:19.479Z,37.40
2022-08-21T17:15:47.818Z,37.65
2022-08-21T17:18:17.962Z,37.63
2022-08-21T17:20:45.932Z,37.99
2022-08-21T17:23:13.850Z,38.08
2022-08-21T17:25:45.863Z,38.37
2022-08-21T17:28:17.619Z,38.50
2022-08-21T17:30:46.217Z,38.15
2022-08-21T17:33:15.199Z,38.48
2022-08-21T17:35:46.548Z,38.28
2022-08-21T17:38:14.859Z,38.01
2022-08-21T17:40:43.219Z,38.17
2022-08-21T17:43:13.743Z,38.54
2022-08-21T17:45:43.836Z,38.62
2022-08-21T17:48:12.655Z,38.68
2022-08-21T17:50:40.921Z,38.78
2022-08-21T17:53:10.004Z,38.88
2022-08-21T17:55:38.383Z,39.14
2022-08-21T17:58:06.471Z,39.05
2022-08-21T18:00:35.725Z,39.17
2022-08-21T18:03:09.006Z,39.58
2022-08-21T18:05:37.055Z,39.90
2022-08-21T18:08:05.158Z,39.84
2022-08-21T18:10:33.788Z,40.04
2022-08-21T18:13:04.423Z,40.50
2022-08-21T18:15:32.498Z,40.67
2022-08-21T18:18:01.229Z,40.76
2022-08-21T18:20:30.810Z,41.18
2022-08-21T18:23:01.505Z,41.17
2022-08-21T18:25:29.952Z,41.53
2022-08-21T18:27:58.148Z,41.80
2022-08-21T18:30:26.046Z,41.99
2022-08-21T18:32:56.306Z,42.30
2022-08-21T18:35:24.843Z,42.60
2022-08-21T18:37:54.320Z,42.71
2022-08-21T18:40:22.605Z,42.83
2022-08-21T18:42:55.493Z,42.92
2022-08-21T18:45:25.043Z,43.19
2022-08-21T18:47:56.124Z,43.66
2022-08-21T18:50:27.019Z,43.56
2022-08-21T18:52:56.918Z,43.99
2022-08-21T18:55:25.292Z,44.19
2022-08-21T18:57:55.199Z,44.09
2022-08-21T19:00:28.886Z,44.50
2022-08-21T19:02:57.493Z,44.79
2022-08-21T19:05:26.185Z,44.78
2022-08-21T19:07:58.115Z,45.21
2022-08-21T19:10:29.468Z,45.24
2022-08-21T19:13:00.155Z,45.30
2022-08-21T19:15:29.801Z,45.64
2022-08-21T19:17:58.636Z,45.83
2022-08-21T19:20:29.580Z,46.16
2022-08-21T19:22:59.223Z,46.33
2022-08-21T19:25:33.068Z,46.58
2022-08-21T19:28:02.689Z,46.54
2022-08-21T19:30:30.929Z,46.70
2022-08-21T19:32:59.186Z,47.03
2022-08-21T19:35:28.227Z,47.17
2022-08-21T19:37:56.547Z,47.15
2022-08-21T19:40:32.450Z,47.14
2022-08-21T19:43:00.583Z,47.10
2022-08-21T19:45:29.874Z,47.03
2022-08-21T19:47:58.730Z,47.13
2022-08-21T19:50:27.851Z,47.00
2022-08-21T19:52:56.352Z,47.03
2022-08-21T19:55:24.489Z,47.16
2022-08-21T19:57:54.708Z,47.33
2022-08-21T20:00:24.113Z,47.30
2022-08-21T20:02:52.302Z,47.39
2022-08-21T20:08:20.019Z,47.62
2022-08-21T20:10:59.788Z,47.21
2022-08-21T20:13:34.399Z,47.34
2022-08-21T20:16:03.130Z,47.73
2022-08-21T20:18:32.607Z,47.78
2022-08-21T20:21:00.824Z,47.52
2022-08-21T20:23:29.924Z,47.75
2022-08-21T20:25:58.594Z,47.86
2022-08-21T20:28:27.026Z,47.94
2022-08-21T20:30:58.168Z,48.34
2022-08-21T20:33:26.243Z,48.21
2022-08-21T20:35:54.786Z,48.42
2022-08-21T20:38:23.340Z,48.39
2022-08-21T20:40:54.636Z,48.56
2022-08-21T20:43:23.796Z,48.68
2022-08-21T20:45:52.279Z,48.75
2022-08-21T20:48:27.577Z,48.89
2022-08-21T20:51:02.200Z,48.79
2022-08-21T20:56:39.356Z,49.22
2022-08-21T20:59:16.390Z,49.66
2022-08-21T21:01:47.940Z,50.08
2022-08-21T21:04:33.373Z,50.18
2022-08-21T21:07:02.639Z,50.49
2022-08-21T21:09:45.884Z,50.78
2022-08-21T21:12:18.828Z,50.88
2022-08-21T21:14:59.724Z,51.15
2022-08-21T21:17:31.738Z,51.22
2022-08-21T21:20:07.999Z,51.38
2022-08-21T21:22:43.367Z,51.33
2022-08-21T21:25:16.039Z,51.40
2022-08-21T21:27:49.795Z,51.77
2022-08-21T21:30:22.146Z,51.69
2022-08-21T21:32:50.115Z,51.95
2022-08-21T21:35:32.645Z,52.36
2022-08-21T21:38:12.338Z,52.56
2022-08-21T21:40:49.689Z,52.61
2022-08-21T21:43:32.058Z,53.06
2022-08-21T21:46:08.543Z,53.38
2022-08-21T21:48:54.248Z,53.37
2022-08-21T21:51:38.949Z,53.57
2022-08-21T21:54:23.399Z,53.79
2022-08-21T21:57:04.635Z,54.11
2022-08-21T21:59:44.665Z,54.13
2022-08-21T22:02:21.556Z,54.26
2022-08-21T22:05:00.402Z,54.28
2022-08-21T22:07:37.359Z,54.39
2022-08-21T22:10:19.608Z,54.56
2022-08-21T22:12:54.601Z,54.66
2022-08-21T22:15:26.331Z,54.67
2022-08-21T22:18:02.411Z,54.79
2022-08-21T22:20:37.466Z,55.15
2022-08-21T22:23:15.966Z,55.14
2022-08-21T22:25:48.498Z,55.28
2022-08-21T22:31:18.313Z,55.59
2022-08-21T22:34:02.759Z,55.68
2022-08-21T22:36:32.866Z,55.65
2022-08-21T22:39:04.927Z,55.83
2022-08-21T22:41:38.510Z,55.89
2022-08-21T22:44:12.045Z,56.06
2022-08-21T22:46:45.770Z,56.04
2022-08-21T22:49:25.174Z,56.35
2022-08-21T22:51:58.025Z,56.56
2022-08-21T22:54:34.064Z,56.79
2022-08-21T22:57:04.850Z,56.81
2022-08-21T22:59:35.964Z,56.85
2022-08-21T23:02:11.330Z,57.16
2022-08-21T23:04:48.832Z,57.42
2022-08-21T23:07:33.916Z,57.36
2022-08-21T23:10:03.721Z,57.54
2022-08-21T23:12:36.927Z,57.65
2022-08-21T23:15:08.932Z,57.68
2022-08-21T23:20:43.211Z,57.76
2022-08-21T23:23:17.926Z,58.03
2022-08-21T23:26:17.325Z,58.31
2022-08-21T23:29:04.833Z,58.84
2022-08-21T23:31:43.690Z,58.86
2022-08-21T23:34:21.566Z,58.97
2022-08-21T23:37:41.148Z,59.40
2022-08-21T23:40:50.904Z,59.48
2022-08-21T23:43:30.970Z,59.60
2022-08-21T23:46:21.443Z,59.93
2022-08-21T23:49:18.579Z,60.10
2022-08-21T23:51:56.915Z,60.37
2022-08-21T23:54:34.995Z,60.37
2022-08-21T23:57:12.686Z,60.45
2022-08-21T23:59:58.823Z,60.84
